Time;durP1;ratioP1;P1;durP2;ratioP2;P2;SDS_P1;SDS_P2;PMS_P1;PMS_P2;Temp;Humidity;BMP_temperature;BMP_pressure;BME280_temperature;BME280_humidity;BME280_pressure;Samples;Min_cycle;Max_cycle;Signal;HPM_P1;HPM_P2
2023/05/25 00:00:19;;;;;;;31.58;10.13;;;8.50;99.90;;;;;;5042920;28;20046;-65
2023/05/25 00:02:45;;;;;;;30.25;10.10;;;8.50;99.90;;;;;;5042861;28;20503;-65
2023/05/25 00:05:11;;;;;;;28.52;9.32;;;8.50;99.90;;;;;;5044172;28;20122;-66
2023/05/25 00:07:38;;;;;;;39.55;10.57;;;8.50;99.90;;;;;;5043767;28;20048;-65
2023/05/25 00:10:07;;;;;;;38.95;10.77;;;8.50;99.90;;;;;;5045262;28;20047;-65
2023/05/25 00:12:33;;;;;;;29.08;10.43;;;8.50;99.90;;;;;;5042473;28;20427;-66
2023/05/25 00:14:59;;;;;;;30.52;9.40;;;8.50;99.90;;;;;;5043250;28;20474;-66
2023/05/25 00:17:28;;;;;;;24.33;9.45;;;8.60;99.90;;;;;;5041516;28;20044;-66
2023/05/25 00:19:56;;;;;;;37.35;9.68;;;8.50;99.90;;;;;;5026983;28;20383;-65
2023/05/25 00:22:22;;;;;;;29.77;10.77;;;8.50;99.90;;;;;;5044807;28;20515;-66
2023/05/25 00:24:47;;;;;;;32.25;11.05;;;8.40;99.90;;;;;;5047530;28;20049;-65
2023/05/25 00:27:13;;;;;;;32.72;10.90;;;8.40;99.90;;;;;;5072830;28;20045;-65
2023/05/25 00:29:38;;;;;;;28.95;10.10;;;8.40;99.90;;;;;;5045637;28;20070;-65
2023/05/25 00:32:04;;;;;;;28.92;10.02;;;8.30;99.90;;;;;;5042031;28;20049;-65
2023/05/25 00:34:30;;;;;;;36.58;11.05;;;8.30;99.90;;;;;;5043543;28;20055;-66
2023/05/25 00:36:55;;;;;;;28.20;9.55;;;8.30;99.90;;;;;;5078195;28;20583;-65
2023/05/25 00:39:21;;;;;;;27.63;9.32;;;8.30;99.90;;;;;;5045298;28;20045;-66
2023/05/25 00:41:48;;;;;;;36.05;11.68;;;8.20;99.90;;;;;;5076326;28;20041;-65
2023/05/25 00:44:14;;;;;;;33.88;11.38;;;8.10;99.90;;;;;;5041389;28;20126;-66
2023/05/25 00:46:51;;;;;;;44.17;11.73;;;8.20;99.90;;;;;;5046446;28;20036;-65
2023/05/25 00:49:19;;;;;;;35.38;11.43;;;8.20;99.90;;;;;;5040861;28;20063;-66
2023/05/25 00:51:46;;;;;;;32.83;11.32;;;8.20;99.90;;;;;;5042944;28;20052;-66
2023/05/25 00:54:14;;;;;;;36.50;10.75;;;8.20;99.90;;;;;;5044942;28;20037;-65
2023/05/25 00:56:43;;;;;;;33.50;10.35;;;8.20;99.90;;;;;;5042284;28;20044;-65
2023/05/25 00:59:10;;;;;;;35.63;10.85;;;8.10;99.90;;;;;;5045119;28;20048;-66
2023/05/25 01:01:39;;;;;;;30.52;11.13;;;8.10;99.90;;;;;;5045021;28;20045;-65
2023/05/25 01:04:14;;;;;;;25.83;10.75;;;8.10;99.90;;;;;;5058242;28;20059;-65
2023/05/25 01:06:43;;;;;;;18.05;7.47;;;8.10;99.90;;;;;;5040218;28;20373;-65
2023/05/25 01:09:11;;;;;;;24.48;9.30;;;8.00;99.90;;;;;;5039580;28;20053;-65
2023/05/25 01:11:41;;;;;;;28.95;8.35;;;8.00;99.90;;;;;;5044585;28;20064;-66
2023/05/25 01:14:07;;;;;;;19.70;7.72;;;7.90;99.90;;;;;;5075945;28;20037;-65
2023/05/25 01:16:34;;;;;;;16.27;7.35;;;7.70;99.90;;;;;;5037099;28;20052;-65
2023/05/25 01:19:01;;;;;;;13.23;6.38;;;7.60;99.90;;;;;;5076816;28;20044;-65
2023/05/25 01:21:36;;;;;;;11.57;5.57;;;7.50;99.90;;;;;;5047034;28;20153;-66
2023/05/25 01:24:10;;;;;;;13.20;6.47;;;7.50;99.90;;;;;;5071294;28;20357;-65
2023/05/25 01:26:43;;;;;;;15.52;5.57;;;7.40;99.90;;;;;;5073750;28;20105;-65
2023/05/25 01:29:10;;;;;;;18.05;7.35;;;7.50;99.90;;;;;;5042529;28;20041;-65
2023/05/25 01:31:37;;;;;;;17.27;7.05;;;7.50;99.90;;;;;;5075375;28;20045;-65
2023/05/25 01:34:04;;;;;;;20.52;7.55;;;7.50;99.90;;;;;;5042868;28;20045;-65
2023/05/25 01:36:30;;;;;;;8.75;4.22;;;7.40;99.90;;;;;;5045706;28;20369;-65
2023/05/25 01:38:56;;;;;;;10.10;3.47;;;7.40;99.90;;;;;;5075048;28;20044;-65
2023/05/25 01:41:22;;;;;;;42.88;4.78;;;7.30;99.90;;;;;;5028206;28;20598;-65
2023/05/25 01:43:48;;;;;;;6.35;3.65;;;7.20;99.90;;;;;;5074305;28;20124;-65
2023/05/25 01:46:36;;;;;;;8.50;4.10;;;7.10;99.90;;;;;;5046209;28;20033;-65
2023/05/25 01:49:25;;;;;;;26.70;4.80;;;7.00;99.90;;;;;;5042963;28;20041;-65
2023/05/25 01:52:25;;;;;;;7.28;4.30;;;7.00;99.90;;;;;;5040882;28;20045;-65
2023/05/25 01:54:53;;;;;;;477.13;18.02;;;7.00;99.90;;;;;;5043992;28;20523;-66
2023/05/25 01:57:19;;;;;;;246.93;9.95;;;6.90;99.90;;;;;;5043340;28;20380;-65
2023/05/25 01:59:47;;;;;;;6.30;3.95;;;6.80;99.90;;;;;;5042961;28;20033;-65
2023/05/25 02:02:18;;;;;;;29.45;9.88;;;6.80;99.90;;;;;;5072816;28;20068;-66
2023/05/25 02:04:44;;;;;;;56.50;6.45;;;6.70;99.90;;;;;;5044499;28;20045;-66
2023/05/25 02:07:10;;;;;;;138.75;9.35;;;6.80;99.90;;;;;;5040279;28;20037;-66
2023/05/25 02:09:36;;;;;;;39.30;11.05;;;6.80;99.90;;;;;;5042710;28;20135;-65
2023/05/25 02:12:01;;;;;;;34.42;11.02;;;6.90;99.90;;;;;;5044018;28;20139;-66
2023/05/25 02:14:27;;;;;;;33.15;10.32;;;7.10;99.90;;;;;;5040080;28;20088;-66
2023/05/25 02:16:53;;;;;;;33.00;10.80;;;7.20;99.90;;;;;;5044819;28;20044;-66
2023/05/25 02:19:18;;;;;;;28.40;10.93;;;7.40;99.90;;;;;;5039260;28;20063;-66
2023/05/25 02:21:44;;;;;;;40.03;11.70;;;7.40;99.90;;;;;;5042114;28;20043;-66
2023/05/25 02:24:10;;;;;;;43.40;10.88;;;7.40;99.90;;;;;;5039866;28;20040;-65
2023/05/25 02:26:37;;;;;;;42.03;12.35;;;7.50;99.90;;;;;;5041263;28;20053;-65
2023/05/25 02:29:04;;;;;;;40.47;12.20;;;7.50;99.90;;;;;;5036237;28;20091;-66
2023/05/25 02:31:30;;;;;;;38.28;11.07;;;7.50;99.90;;;;;;5042183;28;20041;-66
2023/05/25 02:33:56;;;;;;;34.88;12.27;;;7.50;99.90;;;;;;5060331;28;20051;-66
2023/05/25 02:36:21;;;;;;;34.00;11.27;;;7.50;99.90;;;;;;5042936;28;20063;-66
2023/05/25 02:38:48;;;;;;;33.45;11.27;;;7.50;99.90;;;;;;5021632;28;20392;-65
2023/05/25 02:41:20;;;;;;;30.27;10.80;;;7.50;99.90;;;;;;5049172;28;20039;-66
2023/05/25 02:43:46;;;;;;;33.75;10.80;;;7.50;99.90;;;;;;5042662;28;20036;-66
2023/05/25 02:46:12;;;;;;;39.28;10.20;;;7.40;99.90;;;;;;5047640;28;20044;-66
2023/05/25 02:48:37;;;;;;;28.63;11.27;;;7.40;99.90;;;;;;5075443;28;20040;-66
2023/05/25 02:51:03;;;;;;;32.90;10.43;;;7.30;99.90;;;;;;5049332;28;20044;-65
2023/05/25 02:53:29;;;;;;;33.22;10.85;;;7.30;99.90;;;;;;5044191;28;20391;-66
2023/05/25 02:55:55;;;;;;;33.92;11.80;;;7.30;99.90;;;;;;5049259;28;20044;-66
2023/05/25 02:58:21;;;;;;;36.08;12.50;;;7.30;99.90;;;;;;5043343;28;20041;-65
2023/05/25 03:00:47;;;;;;;36.25;12.38;;;7.30;99.90;;;;;;5042881;28;20161;-66
2023/05/25 03:03:12;;;;;;;44.10;13.40;;;7.30;99.90;;;;;;5044770;28;20083;-66
2023/05/25 03:05:38;;;;;;;43.28;13.27;;;7.30;99.90;;;;;;5048100;28;20047;-66
2023/05/25 03:08:03;;;;;;;44.97;14.00;;;7.30;99.90;;;;;;5042072;28;20123;-65
2023/05/25 03:10:29;;;;;;;34.22;12.27;;;7.30;99.90;;;;;;5040881;28;20057;-65
2023/05/25 03:12:54;;;;;;;32.63;11.32;;;7.30;99.90;;;;;;5079330;28;20582;-66
2023/05/25 03:15:21;;;;;;;41.10;12.05;;;7.30;99.90;;;;;;5046862;28;20488;-65
2023/05/25 03:17:47;;;;;;;28.70;10.82;;;7.30;99.90;;;;;;5039148;28;20032;-66
2023/05/25 03:20:15;;;;;;;28.02;10.27;;;7.30;99.90;;;;;;5043804;28;20043;-66
2023/05/25 03:22:41;;;;;;;34.60;10.23;;;7.20;99.90;;;;;;5044722;28;20549;-65
2023/05/25 03:25:08;;;;;;;54.75;12.35;;;7.20;99.90;;;;;;5044390;28;20130;-65
2023/05/25 03:27:33;;;;;;;39.53;12.32;;;7.20;99.90;;;;;;5045821;28;20041;-66
2023/05/25 03:29:59;;;;;;;20.90;8.43;;;7.20;99.90;;;;;;5043164;28;20049;-65
2023/05/25 03:32:25;;;;;;;14.52;6.50;;;7.10;99.90;;;;;;5076761;28;20060;-65
2023/05/25 03:34:51;;;;;;;15.18;6.53;;;7.10;99.90;;;;;;5047063;28;21712;-65
2023/05/25 03:37:16;;;;;;;16.65;7.82;;;7.00;99.90;;;;;;5043946;28;20048;-65
2023/05/25 03:39:42;;;;;;;17.50;7.28;;;7.00;99.90;;;;;;5047024;28;20037;-65
2023/05/25 03:42:07;;;;;;;19.05;7.90;;;6.90;99.90;;;;;;5048698;28;20037;-65
2023/05/25 03:44:33;;;;;;;19.17;7.80;;;6.90;99.90;;;;;;5043866;28;20565;-65
2023/05/25 03:46:58;;;;;;;48.10;14.15;;;6.80;99.90;;;;;;5045230;28;20389;-65
2023/05/25 03:49:24;;;;;;;52.95;16.60;;;6.80;99.90;;;;;;5042973;28;20045;-65
2023/05/25 03:51:50;;;;;;;46.90;15.18;;;6.90;99.90;;;;;;5073976;28;20045;-65
2023/05/25 03:54:15;;;;;;;36.78;13.20;;;7.00;99.90;;;;;;5043529;28;20033;-65
2023/05/25 03:56:41;;;;;;;23.58;8.95;;;7.10;99.90;;;;;;5046028;28;20048;-65
2023/05/25 03:59:06;;;;;;;20.98;7.68;;;7.10;99.90;;;;;;5072682;28;20384;-65
2023/05/25 04:01:32;;;;;;;14.68;6.35;;;7.10;99.90;;;;;;5045714;28;20388;-65
2023/05/25 04:03:57;;;;;;;12.00;6.60;;;7.00;99.90;;;;;;5045418;28;20056;-65
2023/05/25 04:06:24;;;;;;;14.82;6.78;;;6.90;99.90;;;;;;5041391;28;20535;-65
2023/05/25 04:08:50;;;;;;;15.50;6.65;;;6.80;99.90;;;;;;5073862;28;20036;-66
2023/05/25 04:11:17;;;;;;;37.17;6.45;;;6.80;99.90;;;;;;5075839;28;20045;-66
2023/05/25 04:13:43;;;;;;;24.98;8.55;;;6.80;99.90;;;;;;5047693;28;20037;-65
2023/05/25 04:16:11;;;;;;;34.63;12.02;;;6.70;99.90;;;;;;5043261;28;20033;-66
2023/05/25 04:18:36;;;;;;;37.40;13.85;;;6.80;99.90;;;;;;5031965;28;20056;-65
2023/05/25 04:21:02;;;;;;;45.13;13.77;;;6.90;99.90;;;;;;5027460;28;20041;-65
2023/05/25 04:23:27;;;;;;;37.03;12.73;;;7.10;99.90;;;;;;5043639;28;20037;-65
2023/05/25 04:25:53;;;;;;;39.30;13.63;;;7.20;99.90;;;;;;5045727;28;20398;-65
2023/05/25 04:28:19;;;;;;;42.58;14.15;;;7.40;99.90;;;;;;5044514;28;20041;-65
2023/05/25 04:30:44;;;;;;;41.20;12.55;;;7.40;99.90;;;;;;5078933;28;20048;-66
2023/05/25 04:33:13;;;;;;;41.80;13.25;;;7.50;99.90;;;;;;5042918;28;20384;-65
2023/05/25 04:35:41;;;;;;;39.08;13.48;;;7.60;99.90;;;;;;5043358;28;20057;-65
2023/05/25 04:38:07;;;;;;;46.95;13.88;;;7.70;99.90;;;;;;5043785;28;20048;-65
2023/05/25 04:40:34;;;;;;;50.88;14.48;;;7.80;99.90;;;;;;5045997;28;20249;-65
2023/05/25 04:43:00;;;;;;;46.90;15.48;;;7.90;99.90;;;;;;5043439;28;20398;-65
2023/05/25 04:45:28;;;;;;;46.30;15.13;;;8.00;99.90;;;;;;5042098;28;20075;-66
2023/05/25 04:47:55;;;;;;;52.35;15.57;;;8.10;99.90;;;;;;5042282;28;20250;-66
2023/05/25 04:50:20;;;;;;;59.47;16.63;;;8.20;99.90;;;;;;5041938;28;20052;-65
2023/05/25 04:52:46;;;;;;;49.22;17.00;;;8.30;99.90;;;;;;5046804;28;20044;-66
2023/05/25 04:55:12;;;;;;;54.22;16.10;;;8.40;99.90;;;;;;5044048;28;20514;-66
2023/05/25 04:57:38;;;;;;;51.42;16.67;;;8.50;99.90;;;;;;5043787;28;20466;-67
2023/05/25 05:00:05;;;;;;;47.13;15.15;;;8.60;99.90;;;;;;5043949;28;20400;-68
2023/05/25 05:02:30;;;;;;;54.55;16.63;;;8.70;99.90;;;;;;5045011;28;20517;-69
2023/05/25 05:04:56;;;;;;;60.75;19.23;;;8.80;99.90;;;;;;5042293;28;20033;-68
2023/05/25 05:07:22;;;;;;;51.85;17.45;;;8.90;99.90;;;;;;5042978;28;20139;-67
2023/05/25 05:09:48;;;;;;;56.10;18.77;;;9.00;99.90;;;;;;5040983;28;20197;-68
2023/05/25 05:12:13;;;;;;;48.85;18.10;;;9.10;99.90;;;;;;5039874;28;20051;-68
2023/05/25 05:14:39;;;;;;;61.20;18.98;;;9.20;99.90;;;;;;5045469;28;20508;-68
2023/05/25 05:17:05;;;;;;;52.45;17.48;;;9.40;99.90;;;;;;5044368;28;20048;-68
2023/05/25 05:19:32;;;;;;;54.33;16.67;;;9.50;99.90;;;;;;5044813;28;20037;-68
2023/05/25 05:21:57;;;;;;;69.72;21.05;;;9.70;99.90;;;;;;5044717;28;20407;-67
2023/05/25 05:24:23;;;;;;;64.40;20.92;;;9.90;99.90;;;;;;5044077;28;20033;-67
2023/05/25 05:26:49;;;;;;;58.85;20.33;;;10.00;99.90;;;;;;5040579;28;20127;-68
2023/05/25 05:29:15;;;;;;;55.50;20.55;;;10.20;99.90;;;;;;5043926;28;20384;-69
2023/05/25 05:31:41;;;;;;;56.55;21.67;;;10.40;99.90;;;;;;5037465;28;20044;-68
2023/05/25 05:34:07;;;;;;;62.83;22.88;;;10.50;99.90;;;;;;5044552;28;20124;-68
2023/05/25 05:36:32;;;;;;;55.40;18.67;;;10.60;99.90;;;;;;5041880;28;20128;-68
2023/05/25 05:38:58;;;;;;;48.72;15.43;;;10.70;99.90;;;;;;5040944;28;20033;-70
2023/05/25 05:41:24;;;;;;;57.17;20.35;;;10.80;99.90;;;;;;5042868;28;20068;-68
2023/05/25 05:43:50;;;;;;;64.60;20.02;;;10.90;99.90;;;;;;5041697;28;20129;-68
2023/05/25 05:46:16;;;;;;;63.55;21.60;;;11.00;99.90;;;;;;5047551;28;20067;-68
2023/05/25 05:48:41;;;;;;;62.95;20.75;;;11.10;99.90;;;;;;5045602;28;20044;-70
2023/05/25 05:51:07;;;;;;;45.47;16.42;;;11.20;99.90;;;;;;5049233;28;20399;-68
2023/05/25 05:53:34;;;;;;;62.70;21.42;;;11.30;99.90;;;;;;5043684;28;20033;-68
2023/05/25 05:56:00;;;;;;;58.25;19.40;;;11.40;99.90;;;;;;5078197;28;20072;-68
2023/05/25 05:58:26;;;;;;;70.22;21.92;;;11.50;99.90;;;;;;5032370;28;20041;-68
2023/05/25 06:00:52;;;;;;;58.08;21.05;;;11.60;99.90;;;;;;5029661;28;20034;-67
2023/05/25 06:03:19;;;;;;;56.38;19.77;;;11.70;99.90;;;;;;5045508;28;20040;-67
2023/05/25 06:05:44;;;;;;;54.15;20.52;;;11.80;99.90;;;;;;5050673;28;20547;-67
2023/05/25 06:08:10;;;;;;;55.05;21.92;;;12.00;99.90;;;;;;5044488;28;20119;-66
2023/05/25 06:10:37;;;;;;;71.75;23.42;;;12.00;99.90;;;;;;5049031;28;20056;-66
2023/05/25 06:13:02;;;;;;;59.78;20.70;;;12.20;99.90;;;;;;5041435;28;20051;-68
2023/05/25 06:15:28;;;;;;;61.78;24.88;;;12.30;99.90;;;;;;5047885;28;20053;-67
2023/05/25 06:17:53;;;;;;;66.65;21.92;;;12.40;99.90;;;;;;5046764;28;20041;-66
2023/05/25 06:20:19;;;;;;;58.63;20.58;;;12.50;99.90;;;;;;5049689;28;20047;-69
2023/05/25 06:22:45;;;;;;;61.55;20.33;;;12.50;99.90;;;;;;5039641;28;20044;-66
2023/05/25 06:25:10;;;;;;;60.58;21.58;;;12.70;99.90;;;;;;5047732;28;20036;-67
2023/05/25 06:27:36;;;;;;;54.38;20.63;;;12.80;99.90;;;;;;5040231;28;20099;-66
2023/05/25 06:30:02;;;;;;;62.53;20.90;;;12.80;99.90;;;;;;5048620;28;20045;-67
2023/05/25 06:32:28;;;;;;;52.78;18.30;;;13.00;99.90;;;;;;5040420;28;20079;-67
2023/05/25 06:34:53;;;;;;;54.10;19.20;;;13.20;99.90;;;;;;5043879;28;20459;-68
2023/05/25 06:37:19;;;;;;;49.15;18.23;;;13.30;99.90;;;;;;5045725;28;20040;-66
2023/05/25 06:39:44;;;;;;;48.05;17.42;;;13.40;99.90;;;;;;5047936;28;20058;-67
2023/05/25 06:42:10;;;;;;;50.58;16.15;;;13.50;99.90;;;;;;5047550;28;20044;-66
2023/05/25 06:44:36;;;;;;;46.00;16.52;;;13.60;99.90;;;;;;5042430;28;20048;-66
2023/05/25 06:47:02;;;;;;;44.42;15.43;;;13.70;99.90;;;;;;5045349;28;20084;-66
2023/05/25 06:49:28;;;;;;;38.38;13.73;;;13.80;99.90;;;;;;5048329;28;20384;-67
2023/05/25 06:51:53;;;;;;;40.13;13.98;;;13.90;99.90;;;;;;5048493;28;20388;-67
2023/05/25 06:54:19;;;;;;;39.25;14.57;;;14.00;99.90;;;;;;5044615;28;20075;-66
2023/05/25 06:56:45;;;;;;;45.85;14.75;;;14.00;99.90;;;;;;5047231;28;20084;-66
2023/05/25 06:59:11;;;;;;;47.88;13.50;;;14.00;99.90;;;;;;5045578;28;20128;-66
2023/05/25 07:01:36;;;;;;;33.90;11.82;;;13.90;99.90;;;;;;5044908;28;20201;-66
2023/05/25 07:04:02;;;;;;;33.28;13.20;;;13.80;99.90;;;;;;5032415;28;20041;-67
2023/05/25 07:06:28;;;;;;;40.40;12.88;;;13.80;99.90;;;;;;5047327;28;20176;-67
2023/05/25 07:08:54;;;;;;;38.20;11.63;;;13.80;99.90;;;;;;5076058;28;20132;-66
2023/05/25 07:11:20;;;;;;;32.83;9.50;;;13.80;99.90;;;;;;5049222;28;20051;-67
2023/05/25 07:13:46;;;;;;;34.88;9.77;;;13.90;99.90;;;;;;5044976;28;20079;-67
2023/05/25 07:16:13;;;;;;;30.65;10.88;;;14.10;99.90;;;;;;5038492;28;20045;-65
2023/05/25 07:18:39;;;;;;;33.63;10.70;;;14.40;99.90;;;;;;5039668;28;20048;-66
2023/05/25 07:21:08;;;;;;;31.55;9.63;;;14.50;99.90;;;;;;5047574;28;20037;-68
2023/05/25 07:23:37;;;;;;;34.42;9.45;;;14.50;99.90;;;;;;5079369;28;20049;-68
2023/05/25 07:26:02;;;;;;;31.65;11.18;;;14.40;99.90;;;;;;5052298;28;20569;-66
2023/05/25 07:28:28;;;;;;;36.33;10.52;;;14.50;99.90;;;;;;5040613;28;20037;-68
2023/05/25 07:30:54;;;;;;;33.45;9.50;;;14.60;99.90;;;;;;5052193;28;20037;-67
2023/05/25 07:33:19;;;;;;;27.00;9.18;;;14.70;99.90;;;;;;5042562;28;20060;-68
2023/05/25 07:35:45;;;;;;;34.10;10.18;;;14.70;99.90;;;;;;5046825;28;20041;-67
2023/05/25 07:38:10;;;;;;;33.00;9.25;;;14.80;99.90;;;;;;5047036;28;20033;-66
2023/05/25 07:40:36;;;;;;;32.53;8.60;;;14.90;99.90;;;;;;5050831;28;20128;-67
2023/05/25 07:43:02;;;;;;;33.72;8.43;;;15.00;99.90;;;;;;5047264;28;20291;-65
2023/05/25 07:45:27;;;;;;;30.42;9.25;;;14.90;99.90;;;;;;5050703;28;20484;-66
2023/05/25 07:47:53;;;;;;;33.47;9.63;;;14.90;99.90;;;;;;5080761;28;20045;-67
2023/05/25 07:50:18;;;;;;;29.20;9.07;;;14.90;99.90;;;;;;5050362;28;20044;-67
2023/05/25 07:52:45;;;;;;;39.03;9.50;;;14.90;99.90;;;;;;5048821;28;20127;-66
2023/05/25 07:55:10;;;;;;;34.25;9.70;;;14.90;99.90;;;;;;5052981;28;20464;-68
2023/05/25 07:57:36;;;;;;;30.45;9.65;;;14.90;99.90;;;;;;5042538;28;20131;-68
2023/05/25 08:00:05;;;;;;;29.73;9.00;;;14.90;99.90;;;;;;5050302;28;20041;-67
2023/05/25 08:02:30;;;;;;;28.77;8.63;;;14.90;99.90;;;;;;5049486;28;20385;-66
2023/05/25 08:04:56;;;;;;;37.53;9.20;;;15.00;99.90;;;;;;5046758;28;20068;-67
2023/05/25 08:07:23;;;;;;;31.05;8.35;;;15.00;99.90;;;;;;5050254;28;20089;-67
2023/05/25 08:09:49;;;;;;;28.73;8.15;;;15.00;99.90;;;;;;5048218;28;20033;-68
2023/05/25 08:12:15;;;;;;;25.50;8.43;;;15.10;99.90;;;;;;5050452;28;20048;-68
2023/05/25 08:14:40;;;;;;;33.65;7.93;;;15.20;99.90;;;;;;5048445;28;20399;-67
2023/05/25 08:17:06;;;;;;;32.20;8.32;;;15.30;99.90;;;;;;5048408;28;20091;-68
2023/05/25 08:19:31;;;;;;;29.27;8.65;;;15.30;99.90;;;;;;5041941;28;20029;-67
2023/05/25 08:21:58;;;;;;;37.58;7.88;;;15.30;99.90;;;;;;5047855;28;20029;-67
2023/05/25 08:24:23;;;;;;;30.95;7.95;;;15.20;99.90;;;;;;5033100;28;20029;-68
2023/05/25 08:26:49;;;;;;;28.33;8.13;;;15.20;99.90;;;;;;5038824;28;20053;-68
2023/05/25 08:29:15;;;;;;;40.80;8.27;;;15.20;99.90;;;;;;5042438;28;20438;-67
2023/05/25 08:31:42;;;;;;;28.08;6.63;;;15.20;99.90;;;;;;5051558;28;20094;-67
2023/05/25 08:34:08;;;;;;;31.20;7.03;;;15.30;99.90;;;;;;5045249;28;20041;-67
2023/05/25 08:36:35;;;;;;;35.97;7.30;;;15.30;99.90;;;;;;5082007;28;20047;-67
2023/05/25 08:39:01;;;;;;;28.88;6.78;;;15.40;99.90;;;;;;5039754;28;20438;-67
2023/05/25 08:41:28;;;;;;;31.95;6.95;;;15.40;99.90;;;;;;5049439;28;20037;-66
2023/05/25 08:43:53;;;;;;;34.25;7.13;;;15.30;99.90;;;;;;5046187;28;20044;-67
2023/05/25 08:46:31;;;;;;;40.03;7.57;;;15.30;99.90;;;;;;5051327;28;20037;-67
2023/05/25 08:49:08;;;;;;;26.50;7.05;;;15.30;99.90;;;;;;5038349;28;20056;-68
2023/05/25 08:51:36;;;;;;;32.90;7.78;;;15.30;99.90;;;;;;5049551;28;20102;-66
2023/05/25 08:54:29;;;;;;;36.00;7.38;;;15.30;99.90;;;;;;5049518;28;20045;-68
2023/05/25 08:57:00;;;;;;;33.78;7.22;;;15.20;99.90;;;;;;5047789;28;20037;-67
2023/05/25 08:59:55;;;;;;;34.80;7.57;;;15.20;99.90;;;;;;5080302;28;20033;-66
2023/05/25 09:02:43;;;;;;;31.83;8.50;;;15.30;99.90;;;;;;5054757;28;20040;-65
2023/05/25 09:05:09;;;;;;;40.50;8.10;;;15.20;99.90;;;;;;5048278;28;20032;-66
2023/05/25 09:07:35;;;;;;;31.20;8.45;;;15.10;99.90;;;;;;5045235;28;20045;-67
2023/05/25 09:10:01;;;;;;;31.02;7.70;;;15.10;99.90;;;;;;5048352;28;20084;-69
2023/05/25 09:12:31;;;;;;;43.28;7.95;;;15.00;99.90;;;;;;5082868;28;20099;-67
2023/05/25 09:14:57;;;;;;;33.15;7.57;;;15.00;99.90;;;;;;5046623;28;20576;-67
2023/05/25 09:17:23;;;;;;;39.67;8.90;;;15.10;99.90;;;;;;5074742;28;20041;-67
2023/05/25 09:19:49;;;;;;;29.65;8.35;;;15.10;99.90;;;;;;5046374;28;20037;-67
2023/05/25 09:22:15;;;;;;;36.95;8.30;;;15.20;99.90;;;;;;5048815;28;20060;-67
2023/05/25 09:24:42;;;;;;;36.55;8.57;;;15.30;99.90;;;;;;5050021;28;20514;-67
2023/05/25 09:27:18;;;;;;;38.13;9.05;;;15.30;99.90;;;;;;5048793;28;20095;-68
2023/05/25 09:29:46;;;;;;;39.30;9.05;;;15.40;99.90;;;;;;5044818;28;20053;-67
2023/05/25 09:32:12;;;;;;;37.03;8.57;;;15.50;99.90;;;;;;5048821;28;20554;-68
2023/05/25 09:34:37;;;;;;;39.78;8.90;;;15.60;99.90;;;;;;5047191;28;20128;-67
2023/05/25 09:37:10;;;;;;;40.85;8.50;;;15.60;99.90;;;;;;5048619;28;20045;-67
2023/05/25 09:39:35;;;;;;;;;;;15.50;99.90;;;;;;5045125;28;20396;-68
2023/05/25 09:42:01;;;;;;;50.63;9.00;;;15.40;99.90;;;;;;5047568;28;19917;-68
2023/05/25 09:44:27;;;;;;;42.28;7.68;;;15.40;99.90;;;;;;5047156;28;20399;-67
2023/05/25 09:46:53;;;;;;;49.70;9.73;;;15.40;99.90;;;;;;5049248;28;20045;-66
2023/05/25 09:49:19;;;;;;;48.92;9.25;;;15.40;99.90;;;;;;5045928;28;20097;-67
2023/05/25 09:51:46;;;;;;;52.80;10.68;;;15.30;99.90;;;;;;5048017;28;20049;-66
2023/05/25 09:54:12;;;;;;;46.53;9.32;;;15.30;99.90;;;;;;5038260;28;20136;-67
2023/05/25 09:56:37;;;;;;;50.55;9.63;;;15.40;99.90;;;;;;5030133;28;20133;-67
2023/05/25 09:59:03;;;;;;;48.05;8.23;;;15.80;99.90;;;;;;5037381;28;20041;-68
2023/05/25 10:01:30;;;;;;;46.70;9.35;;;15.90;99.90;;;;;;5044556;28;20033;-67
2023/05/25 10:03:58;;;;;;;47.83;8.98;;;15.90;99.90;;;;;;5047544;28;20475;-68
2023/05/25 10:06:25;;;;;;;41.13;7.75;;;15.90;99.90;;;;;;5049953;28;20045;-68
2023/05/25 10:08:52;;;;;;;38.85;7.70;;;15.90;99.90;;;;;;5040343;28;20071;-67
2023/05/25 10:11:20;;;;;;;48.65;9.32;;;15.90;99.90;;;;;;5082378;28;20069;-68
2023/05/25 10:13:45;;;;;;;34.10;5.90;;;15.90;99.90;;;;;;5037639;28;20049;-67
2023/05/25 10:16:18;;;;;;;45.58;7.88;;;16.00;99.90;;;;;;5050193;28;20369;-68
2023/05/25 10:18:50;;;;;;;;;;;15.90;99.90;;;;;;5038641;28;20073;-69
2023/05/25 10:21:18;;;;;;;46.03;6.88;;;15.80;99.90;;;;;;5030363;28;19923;-68
2023/05/25 10:23:46;;;;;;;37.58;7.45;;;15.70;99.90;;;;;;5039506;28;20373;-68
2023/05/25 10:26:18;;;;;;;43.70;7.60;;;15.80;99.90;;;;;;5049871;28;20067;-68
2023/05/25 10:28:44;;;;;;;;;;;16.00;99.90;;;;;;5035357;28;20128;-68
2023/05/25 10:31:11;;;;;;;53.75;8.77;;;16.10;99.90;;;;;;5050797;28;20443;-67
2023/05/25 10:33:36;;;;;;;58.10;8.65;;;16.10;99.90;;;;;;5045630;28;20094;-69
2023/05/25 10:36:02;;;;;;;44.90;9.05;;;16.20;99.90;;;;;;5050049;28;20499;-67
2023/05/25 10:38:30;;;;;;;40.45;7.60;;;16.40;99.90;;;;;;5046305;28;20439;-69
2023/05/25 10:40:58;;;;;;;44.75;8.07;;;16.50;99.90;;;;;;5074683;28;20120;-66
2023/05/25 10:43:26;;;;;;;50.70;6.72;;;16.70;99.90;;;;;;5047545;28;20041;-68
2023/05/25 10:45:52;;;;;;;48.35;7.57;;;16.60;99.90;;;;;;5072979;28;20137;-66
2023/05/25 10:48:18;;;;;;;46.42;7.60;;;16.50;99.90;;;;;;5045454;28;20492;-65
2023/05/25 10:50:49;;;;;;;44.25;7.43;;;16.30;99.90;;;;;;5079808;28;20056;-66
2023/05/25 10:53:15;;;;;;;26.52;4.97;;;16.40;99.90;;;;;;5046967;28;20044;-66
2023/05/25 10:55:51;;;;;;;46.58;7.28;;;16.30;99.90;;;;;;5048926;28;20235;-67
2023/05/25 10:58:19;;;;;;;42.85;6.95;;;16.10;99.90;;;;;;5035134;28;20104;-67
2023/05/25 11:00:59;;;;;;;44.35;7.47;;;16.00;99.90;;;;;;5050167;28;20037;-66
2023/05/25 11:03:43;;;;;;;44.70;8.82;;;16.00;99.90;;;;;;5050989;28;20392;-66
2023/05/25 11:06:17;;;;;;;38.58;7.35;;;16.10;99.90;;;;;;5046409;28;20116;-69
2023/05/25 11:08:54;;;;;;;42.50;8.00;;;16.30;99.90;;;;;;5039382;28;20044;-66
2023/05/25 11:11:21;;;;;;;39.78;8.30;;;16.30;99.90;;;;;;5036255;28;20049;-67
2023/05/25 11:13:48;;;;;;;40.22;7.88;;;16.20;99.90;;;;;;5082105;28;20076;-66
2023/05/25 11:16:26;;;;;;;41.35;7.63;;;16.40;99.90;;;;;;5053240;28;20040;-65
2023/05/25 11:18:56;;;;;;;45.60;8.65;;;16.50;99.90;;;;;;5036634;28;20041;-68
2023/05/25 11:21:39;;;;;;;43.78;7.60;;;16.30;99.90;;;;;;5051575;28;20028;-69
2023/05/25 11:24:14;;;;;;;31.85;6.05;;;16.20;99.90;;;;;;5051908;28;20045;-68
2023/05/25 11:26:59;;;;;;;56.42;8.80;;;16.40;99.90;;;;;;5048278;28;20047;-67
2023/05/25 11:29:30;;;;;;;52.60;8.68;;;16.50;99.90;;;;;;5042142;28;20087;-66
2023/05/25 11:31:56;;;;;;;45.13;7.32;;;16.60;99.90;;;;;;5036023;28;20140;-68
2023/05/25 11:34:24;;;;;;;34.13;7.35;;;16.60;99.90;;;;;;5051280;28;20139;-70
2023/05/25 11:36:55;;;;;;;34.25;6.63;;;16.60;99.90;;;;;;5050084;28;20553;-65
2023/05/25 11:39:22;;;;;;;42.53;7.30;;;16.50;99.90;;;;;;5049958;28;20047;-65
2023/05/25 11:41:56;;;;;;;57.10;8.45;;;16.40;99.90;;;;;;5051657;28;20041;-63
2023/05/25 11:44:35;;;;;;;45.88;8.18;;;16.50;99.90;;;;;;5049599;28;20032;-66
2023/05/25 11:47:12;;;;;;;46.75;8.20;;;16.70;99.90;;;;;;5045514;28;20206;-68
2023/05/25 11:49:44;;;;;;;55.30;8.25;;;16.80;99.90;;;;;;5042165;28;20049;-66
2023/05/25 11:52:11;;;;;;;52.67;7.82;;;17.00;99.90;;;;;;5040911;28;20044;-67
2023/05/25 11:54:39;;;;;;;49.47;9.43;;;17.20;99.90;;;;;;5042669;28;20047;-66
2023/05/25 11:57:21;;;;;;;54.80;8.32;;;17.20;99.90;;;;;;5074876;28;20049;-66
2023/05/25 11:59:51;;;;;;;55.15;8.38;;;17.10;99.90;;;;;;5043706;28;20162;-66
2023/05/25 12:02:17;;;;;;;32.30;5.80;;;17.10;99.90;;;;;;5044242;28;20037;-65
2023/05/25 12:04:54;;;;;;;45.92;8.40;;;17.30;99.90;;;;;;5075679;28;20082;-67
2023/05/25 12:07:20;;;;;;;50.72;8.43;;;17.20;99.90;;;;;;5063389;28;20102;-68
2023/05/25 12:09:46;;;;;;;40.92;7.53;;;16.90;99.90;;;;;;5070806;28;20041;-66
2023/05/25 12:12:11;;;;;;;49.50;9.48;;;16.80;99.90;;;;;;5049072;28;20065;-67
2023/05/25 12:14:49;;;;;;;53.22;9.07;;;17.00;99.90;;;;;;5051047;28;20033;-68
2023/05/25 12:17:16;;;;;;;56.47;9.05;;;17.00;99.90;;;;;;5042654;28;20056;-68
2023/05/25 12:19:42;;;;;;;47.08;8.18;;;17.10;99.90;;;;;;5080719;28;20041;-65
2023/05/25 12:22:08;;;;;;;45.70;8.60;;;17.20;99.90;;;;;;5048992;28;20044;-67
2023/05/25 12:24:34;;;;;;;50.45;8.73;;;17.20;99.90;;;;;;5074299;28;20049;-69
2023/05/25 12:27:01;;;;;;;40.83;8.35;;;17.20;99.90;;;;;;5046887;28;20041;-69
2023/05/25 12:29:27;;;;;;;50.30;8.85;;;17.20;99.90;;;;;;5079919;28;20391;-67
2023/05/25 12:32:02;;;;;;;38.42;7.35;;;17.20;99.90;;;;;;5050238;28;20476;-68
2023/05/25 12:34:27;;;;;;;41.78;8.48;;;17.10;99.90;;;;;;5045902;28;20052;-67
2023/05/25 12:36:55;;;;;;;53.78;8.18;;;17.00;99.90;;;;;;5039644;28;20041;-67
2023/05/25 12:39:29;;;;;;;48.97;8.98;;;16.90;99.90;;;;;;5047652;28;20037;-68